createdAt,value
2019-01-12T00:00:13.036Z,7.43
2019-01-12T00:02:41.430Z,7.47
2019-01-12T00:05:09.949Z,7.43
2019-01-12T00:07:38.354Z,7.40
2019-01-12T00:10:08.787Z,7.47
2019-01-12T00:12:37.180Z,7.34
2019-01-12T00:15:07.498Z,7.32
2019-01-12T00:17:35.881Z,7.30
2019-01-12T00:20:06.414Z,7.44
2019-01-12T00:22:34.792Z,7.44
2019-01-12T00:25:03.260Z,7.46
2019-01-12T00:27:31.650Z,7.47
2019-01-12T00:30:00.031Z,7.39
2019-01-12T00:32:28.407Z,7.33
2019-01-12T00:34:56.791Z,7.31
2019-01-12T00:37:25.175Z,7.44
2019-01-12T00:39:53.542Z,7.38
2019-01-12T00:42:21.944Z,7.34
2019-01-12T00:44:50.384Z,7.27
2019-01-12T00:47:18.775Z,7.25
2019-01-12T00:49:47.152Z,7.30
2019-01-12T00:52:15.541Z,7.35
2019-01-12T00:54:44.146Z,7.22
2019-01-12T00:57:12.530Z,7.20
2019-01-12T00:59:40.915Z,7.34
2019-01-12T01:02:09.283Z,7.31
2019-01-12T01:04:37.671Z,7.18
2019-01-12T01:07:06.120Z,7.25
2019-01-12T01:09:34.518Z,7.23
2019-01-12T01:12:02.903Z,7.31
2019-01-12T01:14:31.287Z,7.42
2019-01-12T01:16:59.664Z,7.39
2019-01-12T01:19:28.051Z,7.40
2019-01-12T01:21:56.425Z,7.38
2019-01-12T01:24:24.808Z,7.35
2019-01-12T01:26:53.179Z,7.46
2019-01-12T01:29:21.552Z,7.42
2019-01-12T01:31:50.209Z,7.38
2019-01-12T01:34:18.836Z,7.42
2019-01-12T01:36:47.214Z,7.40
2019-01-12T01:39:15.591Z,7.43
2019-01-12T01:41:43.968Z,7.27
2019-01-12T01:44:12.347Z,7.33
2019-01-12T01:46:40.730Z,7.27
2019-01-12T01:49:09.104Z,7.25
2019-01-12T01:51:37.476Z,7.32
2019-01-12T01:54:05.922Z,7.25
2019-01-12T01:56:34.304Z,7.36
2019-01-12T01:59:02.694Z,7.18
2019-01-12T02:01:31.073Z,7.31
2019-01-12T02:03:59.456Z,7.30
2019-01-12T02:06:27.841Z,7.46
2019-01-12T02:08:59.093Z,7.30
2019-01-12T02:11:27.470Z,7.26
2019-01-12T02:13:55.857Z,7.37
2019-01-12T02:16:24.235Z,7.41
2019-01-12T02:18:52.613Z,7.37
2019-01-12T02:21:20.994Z,7.48
2019-01-12T02:23:49.372Z,7.40
2019-01-12T02:26:17.824Z,7.26
2019-01-12T02:28:46.217Z,7.35
2019-01-12T02:31:14.610Z,7.21
2019-01-12T02:33:42.985Z,7.34
2019-01-12T02:36:11.370Z,7.46
2019-01-12T02:38:39.747Z,7.29
2019-01-12T02:41:08.137Z,7.23
2019-01-12T02:43:36.512Z,7.26
2019-01-12T02:46:05.059Z,7.05
2019-01-12T02:48:33.680Z,7.09
2019-01-12T02:51:02.052Z,7.12
2019-01-12T02:53:30.429Z,7.13
2019-01-12T02:55:58.810Z,7.21
2019-01-12T02:58:27.197Z,7.11
2019-01-12T03:00:55.571Z,7.18
2019-01-12T03:03:23.951Z,7.24
2019-01-12T03:05:52.493Z,7.28
2019-01-12T03:08:20.890Z,7.18
2019-01-12T03:10:49.270Z,7.11
2019-01-12T03:13:17.661Z,7.09
2019-01-12T03:15:46.044Z,7.10
2019-01-12T03:18:14.421Z,7.13
2019-01-12T03:20:42.807Z,7.17
2019-01-12T03:23:11.187Z,7.24
2019-01-12T03:25:39.565Z,7.26
2019-01-12T03:28:08.040Z,7.20
2019-01-12T03:30:36.875Z,7.21
2019-01-12T03:33:05.276Z,7.24
2019-01-12T03:35:33.656Z,7.22
2019-01-12T03:38:02.029Z,7.13
2019-01-12T03:40:30.424Z,7.20
2019-01-12T03:42:58.799Z,7.12
2019-01-12T03:45:27.190Z,7.23
2019-01-12T03:47:55.646Z,7.36
2019-01-12T03:50:24.038Z,7.13
2019-01-12T03:52:52.481Z,7.26
2019-01-12T03:55:25.401Z,7.15
2019-01-12T03:57:51.035Z,7.23
2019-01-12T04:00:21.047Z,7.19
2019-01-12T04:02:49.438Z,7.15
2019-01-12T04:05:17.883Z,7.27
2019-01-12T04:07:46.284Z,7.19
2019-01-12T04:10:15.032Z,7.18
2019-01-12T04:12:43.487Z,7.31
2019-01-12T04:15:13.299Z,7.09
2019-01-12T04:17:41.747Z,7.29
2019-01-12T04:20:12.665Z,7.25
2019-01-12T04:22:41.056Z,7.32
2019-01-12T04:25:09.727Z,7.13
2019-01-12T04:27:38.171Z,7.04
2019-01-12T04:30:12.109Z,7.21
2019-01-12T04:32:40.487Z,7.18
2019-01-12T04:35:09.342Z,7.20
2019-01-12T04:37:37.786Z,7.11
2019-01-12T04:40:11.708Z,7.07
2019-01-12T04:42:40.084Z,7.03
2019-01-12T04:45:09.604Z,7.19
2019-01-12T04:47:37.985Z,7.32
2019-01-12T04:50:11.812Z,7.34
2019-01-12T04:52:40.188Z,7.14
2019-01-12T04:55:08.790Z,7.12
2019-01-12T04:57:37.192Z,7.25
2019-01-12T05:00:08.602Z,7.06
2019-01-12T05:02:36.977Z,7.24
2019-01-12T05:05:05.730Z,7.13
2019-01-12T05:07:34.089Z,7.29
2019-01-12T05:10:02.543Z,7.38
2019-01-12T05:12:30.914Z,7.19
2019-01-12T05:14:59.288Z,7.09
2019-01-12T05:17:27.671Z,7.36
2019-01-12T05:19:56.042Z,7.31
2019-01-12T05:22:24.427Z,7.39
2019-01-12T05:24:52.800Z,7.44
2019-01-12T05:27:21.173Z,7.37
2019-01-12T05:29:49.562Z,7.18
2019-01-12T05:32:17.938Z,7.31
2019-01-12T05:34:46.316Z,7.39
2019-01-12T05:37:14.694Z,7.18
2019-01-12T05:39:43.077Z,7.15
2019-01-12T05:42:11.460Z,7.22
2019-01-12T05:44:39.853Z,7.16
2019-01-12T05:47:08.228Z,7.08
2019-01-12T05:49:36.611Z,7.11
2019-01-12T05:52:05.156Z,6.84
2019-01-12T05:54:33.543Z,6.94
2019-01-12T05:57:01.921Z,7.13
2019-01-12T05:59:30.306Z,7.04
2019-01-12T06:01:58.696Z,7.17
2019-01-12T06:04:27.071Z,7.14
2019-01-12T06:06:55.446Z,7.11
2019-01-12T06:09:23.819Z,7.17
2019-01-12T06:11:52.200Z,7.06
2019-01-12T06:14:20.770Z,7.21
2019-01-12T06:16:49.146Z,7.06
2019-01-12T06:19:17.520Z,7.03
2019-01-12T06:21:45.906Z,7.04
2019-01-12T06:24:14.293Z,7.04
2019-01-12T06:26:42.694Z,7.15
2019-01-12T06:29:11.055Z,7.08
2019-01-12T06:31:39.451Z,6.96
2019-01-12T06:34:07.829Z,7.07
2019-01-12T06:36:37.130Z,7.08
2019-01-12T06:39:08.101Z,7.14
2019-01-12T06:41:36.548Z,7.39
2019-01-12T06:44:05.393Z,7.17
2019-01-12T06:46:33.759Z,7.23
2019-01-12T06:49:02.141Z,7.15
2019-01-12T06:51:30.507Z,7.11
2019-01-12T06:53:58.877Z,6.97
2019-01-12T06:56:27.247Z,7.07
2019-01-12T06:58:55.857Z,7.00
2019-01-12T07:01:24.230Z,7.09
2019-01-12T07:03:53.075Z,7.05
2019-01-12T07:06:21.408Z,6.90
2019-01-12T07:08:53.363Z,7.12
2019-01-12T07:11:21.926Z,6.87
2019-01-12T07:13:52.229Z,6.90
2019-01-12T07:16:20.623Z,6.83
2019-01-12T07:18:48.996Z,6.85
2019-01-12T07:21:18.281Z,6.92
2019-01-12T07:23:46.673Z,6.98
2019-01-12T07:26:17.642Z,6.97
2019-01-12T07:28:45.138Z,6.98
2019-01-12T07:31:13.541Z,7.00
2019-01-12T07:33:41.911Z,6.97
2019-01-12T07:36:10.304Z,7.06
2019-01-12T07:38:38.710Z,6.97
2019-01-12T07:41:07.094Z,7.09
2019-01-12T07:43:35.463Z,7.08
2019-01-12T07:46:03.840Z,7.14
2019-01-12T07:48:32.212Z,7.12
2019-01-12T07:51:00.601Z,7.08
2019-01-12T07:53:28.974Z,7.20
2019-01-12T07:55:57.374Z,7.06
2019-01-12T07:58:26.721Z,7.20
2019-01-12T08:00:57.069Z,7.35
2019-01-12T08:03:25.432Z,7.32
2019-01-12T08:05:53.804Z,7.40
2019-01-12T08:08:22.176Z,7.31
2019-01-12T08:10:50.563Z,7.24
2019-01-12T08:13:18.945Z,7.33
2019-01-12T08:15:48.282Z,7.30
2019-01-12T08:18:16.682Z,7.33
2019-01-12T08:20:45.058Z,7.42
2019-01-12T08:23:13.437Z,7.27
2019-01-12T08:25:41.810Z,7.09
2019-01-12T08:28:10.191Z,7.13
2019-01-12T08:30:38.576Z,6.98
2019-01-12T08:33:06.953Z,6.96
2019-01-12T08:35:35.683Z,7.14
2019-01-12T08:38:04.056Z,7.12
2019-01-12T08:40:33.402Z,7.13
2019-01-12T08:43:01.772Z,7.12
2019-01-12T08:45:30.425Z,7.06
2019-01-12T08:47:58.959Z,6.98
2019-01-12T08:50:28.247Z,7.08
2019-01-12T08:52:58.465Z,7.04
2019-01-12T08:55:28.690Z,7.02
2019-01-12T08:57:57.064Z,7.12
2019-01-12T09:00:25.452Z,7.01
2019-01-12T09:02:53.828Z,7.07
2019-01-12T09:05:22.221Z,7.12
2019-01-12T09:07:54.092Z,7.26
2019-01-12T09:10:22.562Z,7.25
2019-01-12T09:12:51.023Z,7.27
2019-01-12T09:15:19.419Z,7.37
2019-01-12T09:17:47.793Z,7.30
2019-01-12T09:20:16.545Z,7.33
2019-01-12T09:22:45.086Z,7.38
2019-01-12T09:25:14.605Z,7.18
2019-01-12T09:27:43.050Z,7.33
2019-01-12T09:30:19.740Z,7.36
2019-01-12T09:32:48.250Z,7.30
2019-01-12T09:35:16.865Z,7.05
2019-01-12T09:37:46.281Z,7.08
2019-01-12T09:40:18.488Z,7.02
2019-01-12T09:42:47.045Z,7.08
2019-01-12T09:45:17.158Z,7.20
2019-01-12T09:47:45.609Z,7.13
2019-01-12T09:50:18.219Z,7.09
2019-01-12T09:52:46.842Z,7.17
2019-01-12T09:55:15.446Z,7.26
2019-01-12T09:57:44.793Z,7.35
2019-01-12T10:00:21.232Z,7.35
2019-01-12T10:02:49.685Z,7.40
2019-01-12T10:05:18.194Z,7.40
2019-01-12T10:07:46.639Z,7.34
2019-01-12T10:10:17.849Z,7.38
2019-01-12T10:12:46.239Z,7.41
2019-01-12T10:15:14.949Z,7.36
2019-01-12T10:17:43.385Z,7.44
2019-01-12T10:20:14.609Z,7.35
2019-01-12T10:22:43.945Z,7.47
2019-01-12T10:25:13.664Z,7.50
2019-01-12T10:27:42.043Z,7.53
2019-01-12T10:30:13.465Z,7.63
2019-01-12T10:32:41.837Z,7.51
2019-01-12T10:35:10.348Z,7.56
2019-01-12T10:37:38.796Z,7.68
2019-01-12T10:40:10.433Z,7.51
2019-01-12T10:42:38.806Z,7.49
2019-01-12T10:45:10.533Z,7.56
2019-01-12T10:47:38.900Z,7.72
2019-01-12T10:50:10.331Z,7.76
2019-01-12T10:52:38.717Z,7.66
2019-01-12T10:55:07.219Z,7.79
2019-01-12T10:57:35.676Z,7.71
2019-01-12T11:00:07.268Z,7.71
2019-01-12T11:02:35.645Z,7.69
2019-01-12T11:05:06.100Z,7.78
2019-01-12T11:07:34.467Z,7.65
2019-01-12T11:10:04.297Z,7.60
2019-01-12T11:12:32.869Z,7.68
2019-01-12T11:15:01.251Z,7.77
2019-01-12T11:17:29.628Z,7.61
2019-01-12T11:19:58.010Z,7.83
2019-01-12T11:22:26.391Z,7.74
2019-01-12T11:24:54.758Z,7.69
2019-01-12T11:27:23.908Z,7.72
2019-01-12T11:29:52.288Z,7.82
2019-01-12T11:32:20.670Z,7.71
2019-01-12T11:34:49.042Z,7.95
2019-01-12T11:37:17.664Z,8.00
2019-01-12T11:39:46.042Z,8.09
2019-01-12T11:42:14.410Z,7.99
2019-01-12T11:44:42.794Z,7.92
2019-01-12T11:47:11.171Z,7.81
2019-01-12T11:49:39.551Z,7.91
2019-01-12T11:52:08.158Z,8.05
2019-01-12T11:54:36.547Z,8.08
2019-01-12T11:57:05.849Z,7.82
2019-01-12T11:59:34.230Z,8.06
2019-01-12T12:02:02.618Z,7.72
2019-01-12T12:04:31.009Z,7.84
2019-01-12T12:07:00.315Z,7.72
2019-01-12T12:09:28.708Z,7.76
2019-01-12T12:11:58.001Z,7.77
2019-01-12T12:14:26.383Z,7.81
2019-01-12T12:16:54.758Z,7.72
2019-01-12T12:19:23.206Z,7.74
2019-01-12T12:21:52.526Z,7.80
2019-01-12T12:24:20.917Z,7.96
2019-01-12T12:26:56.042Z,7.90
2019-01-12T12:29:24.664Z,8.02
2019-01-12T12:31:59.056Z,8.00
2019-01-12T12:34:45.811Z,8.09
2019-01-12T12:37:14.197Z,8.28
2019-01-12T12:39:42.595Z,8.25
2019-01-12T12:42:11.223Z,8.14
2019-01-12T12:44:39.583Z,8.18
2019-01-12T12:47:08.109Z,8.21
2019-01-12T12:49:36.478Z,8.33
2019-01-12T12:52:06.774Z,8.35
2019-01-12T12:54:35.223Z,8.30
2019-01-12T12:57:03.598Z,8.23
2019-01-12T12:59:31.970Z,8.26
2019-01-12T13:02:00.351Z,8.27
2019-01-12T13:04:28.716Z,8.05
2019-01-12T13:06:57.262Z,8.14
2019-01-12T13:09:25.627Z,7.88
2019-01-12T13:11:54.391Z,7.73
2019-01-12T13:14:22.797Z,7.80
2019-01-12T13:16:51.269Z,7.83
2019-01-12T13:19:19.635Z,7.82
2019-01-12T13:21:48.024Z,7.78
2019-01-12T13:24:16.394Z,7.68
2019-01-12T13:26:44.790Z,7.70
2019-01-12T13:29:13.263Z,7.73
2019-01-12T13:31:41.634Z,7.86
2019-01-12T13:34:10.020Z,7.69
2019-01-12T13:36:38.414Z,8.00
2019-01-12T13:39:07.783Z,7.79
2019-01-12T13:41:36.175Z,7.80
2019-01-12T13:44:04.710Z,7.77
2019-01-12T13:46:33.346Z,7.86
2019-01-12T13:49:01.719Z,7.93
2019-01-12T13:51:30.090Z,8.02
2019-01-12T13:53:58.476Z,7.81
2019-01-12T13:56:26.833Z,7.89
2019-01-12T13:58:55.211Z,7.82
2019-01-12T14:01:23.568Z,7.70
2019-01-12T14:03:51.957Z,7.77
2019-01-12T14:06:20.500Z,7.84
2019-01-12T14:08:48.864Z,7.74
2019-01-12T14:11:17.234Z,7.74
2019-01-12T14:13:45.599Z,7.74
2019-01-12T14:16:13.969Z,7.76
2019-01-12T14:18:42.338Z,7.59
2019-01-12T14:21:10.789Z,7.67
2019-01-12T14:23:39.168Z,7.57
2019-01-12T14:26:07.649Z,7.66
2019-01-12T14:28:35.994Z,7.54
2019-01-12T14:31:04.666Z,7.46
2019-01-12T14:33:33.036Z,7.34
2019-01-12T14:36:01.501Z,7.40
2019-01-12T14:38:30.017Z,7.44
2019-01-12T14:40:58.379Z,7.38
2019-01-12T14:43:26.754Z,7.38
2019-01-12T14:45:55.119Z,7.50
2019-01-12T14:48:23.504Z,7.52
2019-01-12T14:50:51.877Z,7.45
2019-01-12T14:53:20.252Z,7.45
2019-01-12T14:55:57.016Z,7.36
2019-01-12T14:58:25.413Z,7.47
2019-01-12T15:00:53.813Z,7.48
2019-01-12T15:03:22.151Z,7.46
2019-01-12T15:05:50.541Z,7.43
2019-01-12T15:08:18.911Z,7.37
2019-01-12T15:10:47.289Z,7.44
2019-01-12T15:13:15.667Z,7.38
2019-01-12T15:15:44.048Z,7.38
2019-01-12T15:18:12.443Z,7.36
2019-01-12T15:20:40.817Z,7.37
2019-01-12T15:23:10.137Z,7.44
2019-01-12T15:25:38.521Z,7.34
2019-01-12T15:28:09.423Z,7.32
2019-01-12T15:30:36.991Z,7.24
2019-01-12T15:33:05.364Z,7.40
2019-01-12T15:35:34.135Z,7.46
2019-01-12T15:38:02.506Z,7.56
2019-01-12T15:40:30.885Z,7.45
2019-01-12T15:42:59.257Z,7.51
2019-01-12T15:45:27.899Z,7.56
2019-01-12T15:47:56.347Z,7.67
2019-01-12T15:50:26.254Z,7.71
2019-01-12T15:52:54.791Z,7.52
2019-01-12T15:55:23.749Z,7.63
2019-01-12T15:57:52.194Z,7.70
2019-01-12T16:00:27.841Z,7.67
2019-01-12T16:02:56.361Z,7.63
2019-01-12T16:05:27.474Z,7.69
2019-01-12T16:07:55.863Z,7.73
2019-01-12T16:10:24.235Z,7.60
2019-01-12T16:12:52.620Z,7.62
2019-01-12T16:15:22.843Z,7.55
2019-01-12T16:17:51.370Z,7.67
2019-01-12T16:20:25.272Z,7.79
2019-01-12T16:22:53.734Z,7.67
2019-01-12T16:25:22.102Z,7.70
2019-01-12T16:27:50.470Z,7.83
2019-01-12T16:30:20.589Z,7.82
2019-01-12T16:32:49.231Z,7.76
2019-01-12T16:35:18.163Z,7.79
2019-01-12T16:37:46.873Z,7.72
2019-01-12T16:40:25.719Z,7.87
2019-01-12T16:42:55.070Z,7.78
2019-01-12T16:45:25.354Z,7.97
2019-01-12T16:47:53.734Z,7.80
2019-01-12T16:50:22.187Z,7.91
2019-01-12T16:52:51.501Z,7.91
2019-01-12T16:55:19.958Z,7.98
2019-01-12T16:57:48.331Z,7.95
2019-01-12T17:00:19.529Z,8.03
2019-01-12T17:02:47.915Z,7.92
2019-01-12T17:05:16.355Z,7.95
2019-01-12T17:07:44.891Z,8.10
2019-01-12T17:10:21.004Z,7.83
2019-01-12T17:12:49.427Z,8.03
2019-01-12T17:15:19.871Z,7.86
2019-01-12T17:17:48.327Z,8.00
2019-01-12T17:20:19.369Z,7.95
2019-01-12T17:22:48.329Z,7.97
2019-01-12T17:25:17.702Z,8.10
2019-01-12T17:27:46.082Z,7.95
2019-01-12T17:30:16.891Z,8.04
2019-01-12T17:32:46.335Z,8.07
2019-01-12T17:35:14.953Z,8.07
2019-01-12T17:37:43.555Z,8.08
2019-01-12T17:40:14.112Z,8.08
2019-01-12T17:42:42.566Z,8.08
2019-01-12T17:45:16.492Z,8.06
2019-01-12T17:47:44.874Z,7.99
2019-01-12T17:50:15.890Z,8.00
2019-01-12T17:52:44.341Z,7.97
2019-01-12T17:55:15.308Z,8.06
2019-01-12T17:57:43.761Z,8.18
2019-01-12T18:00:19.414Z,8.03
2019-01-12T18:02:47.858Z,7.95
2019-01-12T18:05:16.219Z,8.11
2019-01-12T18:07:44.587Z,8.03
2019-01-12T18:10:14.612Z,8.00
2019-01-12T18:12:43.061Z,8.05
2019-01-12T18:15:13.937Z,8.06
2019-01-12T18:17:42.306Z,8.04
2019-01-12T18:20:18.329Z,8.24
2019-01-12T18:22:46.764Z,8.31
2019-01-12T18:25:16.921Z,8.21
2019-01-12T18:27:45.483Z,8.20
2019-01-12T18:30:24.990Z,8.30
2019-01-12T18:32:53.404Z,8.26
2019-01-12T18:35:21.857Z,8.31
2019-01-12T18:37:50.232Z,8.23
2019-01-12T18:40:20.067Z,8.15
2019-01-12T18:42:48.510Z,8.18
2019-01-12T18:45:19.134Z,7.94
2019-01-12T18:47:47.589Z,7.92
2019-01-12T18:50:23.784Z,8.04
2019-01-12T18:52:52.287Z,7.99
2019-01-12T18:55:20.895Z,7.99
2019-01-12T18:57:49.260Z,8.05
2019-01-12T19:00:27.929Z,7.99
2019-01-12T19:02:56.349Z,8.03
2019-01-12T19:05:25.307Z,8.00
2019-01-12T19:07:53.736Z,7.90
2019-01-12T19:10:22.103Z,7.96
2019-01-12T19:12:50.644Z,7.94
2019-01-12T19:15:27.050Z,7.83
2019-01-12T19:17:55.420Z,7.86
2019-01-12T19:20:23.861Z,7.90
2019-01-12T19:22:52.481Z,7.98
2019-01-12T19:25:21.159Z,7.86
2019-01-12T19:27:49.608Z,8.05
2019-01-12T19:30:21.045Z,7.97
2019-01-12T19:32:49.453Z,7.97
2019-01-12T19:35:17.890Z,7.92
2019-01-12T19:37:46.518Z,7.97
2019-01-12T19:40:19.888Z,8.02
2019-01-12T19:42:48.266Z,8.03
2019-01-12T19:45:17.190Z,8.02
2019-01-12T19:47:45.726Z,8.02
2019-01-12T19:50:24.152Z,8.00
2019-01-12T19:52:52.712Z,7.99
2019-01-12T19:55:21.079Z,7.95
2019-01-12T19:57:49.472Z,8.22
2019-01-12T20:00:20.532Z,8.18
2019-01-12T20:02:48.913Z,8.14
2019-01-12T20:05:17.287Z,8.19
2019-01-12T20:07:45.714Z,8.05
2019-01-12T20:10:15.926Z,8.17
2019-01-12T20:12:44.445Z,8.22
2019-01-12T20:15:19.007Z,8.07
2019-01-12T20:17:49.354Z,8.05
2019-01-12T20:20:18.080Z,8.21
2019-01-12T20:22:46.523Z,8.01
2019-01-12T20:25:18.090Z,8.08
2019-01-12T20:27:46.460Z,8.17
2019-01-12T20:30:35.585Z,8.09
2019-01-12T20:33:24.883Z,8.22
2019-01-12T20:35:56.313Z,8.13
2019-01-12T20:38:33.295Z,8.12
2019-01-12T20:41:10.471Z,8.23
2019-01-12T20:44:00.978Z,8.19
2019-01-12T20:46:39.195Z,8.14
2019-01-12T20:49:22.219Z,8.13
2019-01-12T20:52:12.733Z,8.16
2019-01-12T20:55:01.775Z,8.14
2019-01-12T20:58:01.719Z,8.03
2019-01-12T21:00:54.207Z,8.04
2019-01-12T21:03:31.419Z,7.88
2019-01-12T21:06:05.328Z,8.02
2019-01-12T21:08:51.461Z,7.95
2019-01-12T21:11:28.574Z,8.00
2019-01-12T21:14:20.729Z,8.05
2019-01-12T21:16:49.106Z,7.87
2019-01-12T21:19:17.546Z,8.03
2019-01-12T21:21:45.930Z,7.94
2019-01-12T21:24:14.305Z,7.95
2019-01-12T21:26:42.681Z,7.91
2019-01-12T21:29:11.078Z,7.96
2019-01-12T21:31:39.470Z,7.98
2019-01-12T21:34:07.871Z,7.89
2019-01-12T21:36:36.247Z,7.84
2019-01-12T21:39:06.535Z,7.73
2019-01-12T21:41:34.973Z,7.77
2019-01-12T21:44:03.433Z,7.88
2019-01-12T21:46:31.811Z,7.95
2019-01-12T21:49:00.212Z,8.02
2019-01-12T21:51:28.645Z,7.95
2019-01-12T21:53:57.035Z,7.88
2019-01-12T21:56:25.412Z,7.85
2019-01-12T21:58:54.761Z,7.78
2019-01-12T22:01:23.877Z,7.97
2019-01-12T22:03:52.264Z,7.96
2019-01-12T22:06:20.641Z,8.03
2019-01-12T22:08:49.036Z,8.04
2019-01-12T22:11:17.398Z,7.99
2019-01-12T22:13:45.791Z,7.96
2019-01-12T22:16:14.172Z,8.14
2019-01-12T22:18:42.557Z,8.24
2019-01-12T22:21:10.947Z,8.00
2019-01-12T22:23:39.335Z,7.84
2019-01-12T22:26:07.715Z,7.92
2019-01-12T22:28:36.126Z,7.88
2019-01-12T22:31:04.783Z,7.93
2019-01-12T22:33:33.155Z,8.03
2019-01-12T22:36:01.546Z,8.11
2019-01-12T22:38:29.937Z,8.13
2019-01-12T22:40:58.327Z,8.01
2019-01-12T22:43:26.706Z,8.06
2019-01-12T22:45:55.095Z,8.05
2019-01-12T22:48:23.481Z,8.04
2019-01-12T22:50:51.887Z,8.02
2019-01-12T22:53:20.269Z,8.03
2019-01-12T22:55:48.733Z,8.08
2019-01-12T22:58:17.108Z,8.13
2019-01-12T23:00:49.703Z,8.05
2019-01-12T23:03:18.226Z,8.28
2019-01-12T23:05:46.614Z,8.21
2019-01-12T23:08:15.064Z,8.40
2019-01-12T23:10:43.526Z,8.13
2019-01-12T23:13:11.921Z,8.20
2019-01-12T23:15:40.624Z,8.17
2019-01-12T23:18:09.007Z,8.20
2019-01-12T23:20:37.390Z,8.32
2019-01-12T23:23:05.851Z,8.26
2019-01-12T23:25:34.236Z,8.21
2019-01-12T23:28:02.863Z,8.20
2019-01-12T23:30:31.319Z,8.21
2019-01-12T23:32:59.714Z,8.35
2019-01-12T23:35:28.167Z,8.21
2019-01-12T23:37:56.562Z,8.25
2019-01-12T23:40:24.954Z,8.30
2019-01-12T23:42:53.423Z,8.15
2019-01-12T23:45:22.030Z,8.17
2019-01-12T23:47:50.421Z,8.16
2019-01-12T23:50:19.716Z,8.20
2019-01-12T23:52:48.104Z,8.05
2019-01-12T23:55:16.505Z,8.26
2019-01-12T23:57:44.900Z,8.11
